Tiempo atmosférico en la estación meteorológica de Barbadillo, Salamanca (817 m.)



Fecha
DESCASC
Temp. máxima en grados centígrados (hora)
DESCASC
Temp. mínima en grados centígrados (hora)
DESCASC
Temp. media en grados centígrados
DESCASC
Racha de viento máxima en m/sg (hora)
DESCASC
Velocidad máxima media en intervalos de 10 minutos(hora)
DESCASC
Precipitaciones diarias en mm
DESCASC
Precipitaciones de 00:00 a 06:00 en mm
DESCASC
Precipitaciones de 06:00 a 12:00 en mm
DESCASC
Precipitaciones de 12:00 a 18:00 en mm
DESCASC
Precipitaciones de 18:00 a 24:00 en mm
DESCASC
23-05-2018 24.4 (16:50) 7.6 (06:10) 16 7.78 (14:50) 5 (19:00) 0 0 0 0 0
22-05-2018 23.5 (16:30) 6.9 (07:20) 15.2 8.33 (18:20) 4.17 (18:20) 0 0 0 0 0
21-05-2018 21.3 (14:10) 6 (07:00) 13.6 8.89 (15:20) 5.56 (15:30) 0 0 0 0 0
20-05-2018 19.9 (13:20) 7.9 (00:00) 13.9 10.28 (15:10) 6.39 (17:00) 0 0 0 0 0
19-05-2018 22.6 (17:30) 5.5 (00:00) 14.1 8.89 (18:30) 4.72 (18:30) 0 0 0 0 0
18-05-2018 20.1 (18:20) 9.6 (00:00) 14.9 13.61 (20:10) 8.33 (20:10) 5.8 5.6 0.2 0 0
17-05-2018 23.3 (17:10) 4.9 (00:00) 14.1 11.67 (21:30) 6.11 (21:30) 2.4 0 0 0 2.4
16-05-2018 23 (18:20) 5 (00:00) 14 7.78 (15:50) 4.72 (10:30) 0 0 0 0 0
15-05-2018 20.7 (17:50) 1.8 (00:00) 11.3 11.11 (11:20) 7.5 (10:40) 0 0 0 0 0
14-05-2018 17.8 (18:30) 6 (00:00) 11.9 9.72 (17:30) 4.44 (16:00) 0 0 0 0 0
13-05-2018 13 (19:20) -1.2 (-00:0) 5.9 10 (18:00) 5.28 (18:00) 0 0 0 0 0
12-05-2018 13.6 (18:30) 6.4 (00:00) 10 13.61 (16:50) 6.67 (18:30) 0 0 0 0 0
11-05-2018 21.5 (15:10) 5.3 (07:00) 13.4 12.5 (14:50) 6.39 (14:50) 0 0 0 0 0
10-05-2018 21.1 (18:10) 10 (00:00) 15.6 11.11 (09:50) 7.22 (10:10) 0 0 0 0 0
09-05-2018 20.5 (18:20) 11 (00:00) 15.8 10.83 (17:50) 5.56 (20:50) 0 0 0 0 0
08-05-2018 24.1 (16:00) 11.2 (00:00) 17.7 7.22 (19:10) 4.17 (19:00) 0 0 0 0 0
07-05-2018 24 (16:50) 8 (00:00) 16 7.22 (21:40) 4.72 (21:40) 0 0 0 0 0
06-05-2018 23.3 (17:40) 4.3 (00:00) 13.8 12.5 (17:50) 5.83 (18:10) 0.6 0 0 0 0.6
05-05-2018 19.3 (18:40) 3.2 (00:00) 11.2 7.5 (01:00) 4.44 (01:00) 0 0 0 0 0
04-05-2018 15.6 (16:50) 2.3 (00:00) 9 11.67 (09:40) 7.5 (11:40) 0 0 0 0 0
03-05-2018 14.7 (17:10) 7.2 (00:00) 10.9 10.83 (23:40) 7.22 (23:40) 0 0 0 0 0
02-05-2018 14.6 (17:20) 2.1 (00:00) 8.4 8.89 (15:40) 4.44 (13:40) 0 0 0 0 0
01-05-2018 13 (19:30) 0.4 (07:30) 6.7 8.89 (10:50) 5.28 (11:00) 0 0 0 0 0
30-04-2018 11 (19:00) -0.1 (00:00) 5.4 9.72 (12:50) 5 (15:00) 1.6 0 0.2 0 1.4
29-04-2018 9.2 (14:00) 3.1 (00:00) 6.1 19.17 (14:20) 10.83 (14:20) 6.6 3.2 1.8 0.6 1
28-04-2018 13.2 (16:10) 5 (00:00) 9.1 10.83 (15:50) 5.56 (15:40) 0.4 0 0 0 0.4
27-04-2018 17.5 (18:10) 7.3 (00:00) 12.4 12.5 (16:50) 5.83 (16:50) 0 0 0 0 0
26-04-2018 23.2 (17:50) 7.8 (00:00) 15.5 7.5 (18:50) 4.72 (09:30) 0 0 0 0 0
25-04-2018 25 (15:40) 8 (00:00) 16.5 7.78 (16:30) 5.28 (23:40) 0 0 0 0 0
24-04-2018 24.1 (16:40) 7 (00:00) 15.6 9.17 (14:50) 5.83 (14:00) 0 0 0 0 0

Gráficas

Temp. máximas Temp. mínimas Temp. medias Precipitaciones Rachas de viento máximas Velocidades máximas media en intervalos de 10 minutos

Datos horarios

Fecha y hora oficial Temperatura (ºC) Velocidad del viento (km/h) Dirección del viento Racha (km/h) Dirección de racha Precipitación (mm) Presión (hPa) Tendencia (hPa) Humedad (%)
2018-05-23 23:00:00 16.6 5 Sur 12 Oeste 0 -- -- 65
2018-05-23 22:00:00 19.5 5 Oeste 19 Oeste 0 -- -- 54
2018-05-23 21:00:00 22.2 12 Sudoeste 22 Sudoeste 0 -- -- 44
2018-05-23 20:00:00 22.3 13 Sudoeste 26 Sudoeste 0 -- -- 47
2018-05-23 19:00:00 23 18 Sudoeste 28 Sudoeste 0 -- -- 46
2018-05-23 18:00:00 23.1 13 Sudoeste 25 Sudoeste 0 -- -- 44
2018-05-23 17:00:00 24.3 12 Sudoeste 23 Sudoeste 0 -- -- 40
2018-05-23 16:00:00 24.3 9 Oeste 24 Sudoeste 0 -- -- 41
2018-05-23 15:00:00 23.7 13 Oeste 28 Sudoeste 0 -- -- 43
2018-05-23 14:00:00 23.1 9 Sudoeste 26 Oeste 0 -- -- 44
2018-05-23 13:00:00 22.5 10 Sudoeste 22 Sudoeste 0 -- -- 44
2018-05-23 12:00:00 21.5 6 Nordeste 15 Este 0 -- -- 51
2018-05-23 11:00:00 20.1 3 Norte 10 Nordeste 0 -- -- 55
2018-05-23 10:00:00 16.5 0 Calma 3 Sudeste 0 -- -- 77
2018-05-23 09:00:00 12.1 0 Calma 5 Sudoeste 0 -- -- 93
2018-05-23 08:00:00 8.8 2 Sur 6 Sur 0 -- -- 94
2018-05-23 07:00:00 7.8 0 Calma 8 Sur 0 -- -- 93
2018-05-23 06:00:00 7.7 6 Sur 9 Sur 0 -- -- 91
2018-05-23 05:00:00 8.5 3 Sudoeste 8 Sur 0 -- -- 90
2018-05-23 04:00:00 9.8 0 Calma 8 Sur 0 -- -- 88
2018-05-23 03:00:00 10.7 6 Sur 9 Sur 0 -- -- 86
2018-05-23 02:00:00 11.8 5 Sur 7 Sur 0 -- -- 85
2018-05-23 01:00:00 13.1 5 Sur 10 Sudeste 0 -- -- 83
2018-05-23 00:00:00 14.2 4 Sudeste 6 Sudoeste 0 -- -- 79
2018-05-22 23:00:00 16.1 4 Sur 6 Sudeste 0 -- -- 73
2018-05-22 22:00:00 17.8 5 Sur 11 Sudoeste 0 -- -- 65
2018-05-22 21:00:00 18.9 7 Sudoeste 18 Sur 0 -- -- 60
2018-05-22 20:00:00 19.4 13 Sudeste 24 Sudeste 0 -- -- 59
2018-05-22 19:00:00 20.2 12 Sudeste 30 Sudeste 0 -- -- 58
2018-05-22 18:00:00 21.4 13 Sudeste 26 Sudeste 0 -- -- 55
2018-05-22 17:00:00 22.6 8 Oeste 18 Noroeste 0 -- -- 44
2018-05-22 16:00:00 23 8 Noroeste 18 Oeste 0 -- -- 46
2018-05-22 15:00:00 21.4 4 Nordeste 9 Noroeste 0 -- -- 49
2018-05-22 14:00:00 21 6 Norte 15 Noroeste 0 -- -- 50
2018-05-22 13:00:00 22 5 Sur 15 Sudoeste 0 -- -- 45
2018-05-22 12:00:00 20.6 5 Sur 19 Este 0 -- -- 51
2018-05-22 11:00:00 18.7 4 Norte 8 Norte 0 -- -- 57
2018-05-22 10:00:00 16 5 Norte 8 Norte 0 -- -- 64
2018-05-22 09:00:00 12.1 2 Sudeste 6 Sur 0 -- -- 80
2018-05-22 08:00:00 8.2 2 Sur 10 Sur 0 -- -- 92
2018-05-22 07:00:00 7.2 3 Sur 5 Sur 0 -- -- 88
2018-05-22 06:00:00 8.3 0 Calma 5 Sur 0 -- -- 85
2018-05-22 05:00:00 9.2 2 Sur 8 Sur 0 -- -- 84
2018-05-22 04:00:00 10 5 Sudeste 9 Sur 0 -- -- 82
2018-05-22 03:00:00 10.5 8 Sur 12 Sur 0 -- -- 80
2018-05-22 02:00:00 12.1 6 Sudoeste 14 Sudoeste 0 -- -- 76
2018-05-22 01:00:00 12.5 7 Sudoeste 12 Sur 0 -- -- 81
2018-05-22 00:00:00 12.8 9 Sur 13 Sur 0 -- -- 81
2018-05-21 23:00:00 13.5 7 Sur 11 Sudoeste 0 -- -- 75
2018-05-21 22:00:00 15.9 6 Sur 8 Sur 0 -- -- 68
2018-05-21 21:00:00 18.5 5 Sudoeste 12 Sudoeste 0 -- -- 55
2018-05-21 20:00:00 19.5 9 Sur 21 Sudoeste 0 -- -- 49
2018-05-21 19:00:00 20.8 14 Sudoeste 28 Sudoeste 0 -- -- 45
2018-05-21 18:00:00 21 18 Sudoeste 27 Sudoeste 0 -- -- 47
2018-05-21 17:00:00 20 15 Oeste 28 Sudoeste 0 -- -- 50
2018-05-21 16:00:00 19.4 14 Sudoeste 32 Sur 0 -- -- 53
2018-05-21 15:00:00 19.9 10 Oeste 26 Sudoeste 0 -- -- 52
2018-05-21 14:00:00 21.2 14 Sudoeste 24 Sudoeste 0 -- -- 46
2018-05-21 13:00:00 19.3 7 Sudoeste 18 Sur 0 -- -- 47
2018-05-21 12:00:00 19.5 10 Oeste 21 Sudoeste 0 -- -- 48
2018-05-21 11:00:00 18.3 11 Sur 19 Sudoeste 0 -- -- 50
2018-05-21 10:00:00 16.1 9 Sudoeste 14 Sudoeste 0 -- -- 59
2018-05-21 09:00:00 11.5 3 Sur 5 Sudoeste 0 -- -- 87
2018-05-21 08:00:00 7.1 4 Sur 6 Sur 0 -- -- 92
2018-05-21 07:00:00 6 5 Sur 6 Sur 0 -- -- 91
2018-05-21 06:00:00 6.7 4 Sur 8 Sur 0 -- -- 89
2018-05-21 05:00:00 7.6 4 Sur 8 Sur 0 -- -- 89
2018-05-21 04:00:00 9.4 0 Calma 4 Sur 0 -- -- 86
2018-05-21 03:00:00 10.6 2 Sudeste 6 Sur 0 -- -- 88
2018-05-21 02:00:00 9.9 4 Sudeste 6 Sudeste 0 -- -- 90
2018-05-21 01:00:00 9 4 Sur 4 Sudeste 0 -- -- 89
2018-05-21 00:00:00 9.6 0 Calma 4 Sur 0 -- -- 85
2018-05-20 23:00:00 11.4 4 Sur 6 Sur 0 -- -- 81
2018-05-20 22:00:00 14.1 4 Sudoeste 13 Sudoeste 0 -- -- 72
2018-05-20 21:00:00 16.9 8 Sudoeste 18 Sudoeste 0 -- -- 60
2018-05-20 20:00:00 18.2 10 Sudoeste 22 Sudoeste 0 -- -- 54
2018-05-20 19:00:00 17.9 15 Sudoeste 23 Sudoeste 0 -- -- 53
2018-05-20 18:00:00 17.4 14 Sur 35 Sur 0 -- -- 56
2018-05-20 17:00:00 16.7 23 Sur 34 Sudeste 0 -- -- 64
2018-05-20 16:00:00 14.3 14 Sur 37 Sudoeste 0 -- -- 73
2018-05-20 15:00:00 18.3 18 Sudoeste 30 Sudoeste 0 -- -- 52
2018-05-20 14:00:00 19.1 7 Norte 21 Norte 0 -- -- 50
2018-05-20 13:00:00 19.2 9 Norte 18 Norte 0 -- -- 59
2018-05-20 12:00:00 19.3 4 Sudoeste 10 Este 0 -- -- 55
2018-05-20 11:00:00 16.5 4 Este 13 Este 0 -- -- 71
2018-05-20 10:00:00 14.2 11 Este 19 Este 0 -- -- 76
2018-05-20 09:00:00 12.2 9 Nordeste 18 Nordeste 0 -- -- 85
2018-05-20 08:00:00 8.6 2 Nordeste 4 Nordeste 0 -- -- 94
2018-05-20 07:00:00 8.3 0 Calma 7 Sudeste 0 -- -- 91
2018-05-20 06:00:00 9.1 4 Sudeste 9 Norte 0 -- -- 91
2018-05-20 05:00:00 9.9 3 Noroeste 8 Sur 0 -- -- 92
2018-05-20 04:00:00 10 4 Sudoeste 11 Sur 0 -- -- 91
2018-05-20 03:00:00 9.4 7 Sur 10 Sudoeste 0 -- -- 90
2018-05-20 02:00:00 10.3 0 Calma 4 Sudeste 0 -- -- 85
2018-05-20 01:00:00 11.4 3 Sudeste 6 Sur 0 -- -- 83
2018-05-20 00:00:00 13 4 Sudeste 6 Sur 0 -- -- 79
2018-05-19 23:00:00 14.3 0 Calma 9 Sur 0 -- -- 72
2018-05-19 22:00:00 16.6 3 Sur 17 Sur 0 -- -- 66
2018-05-19 21:00:00 20.4 4 Sudeste 11 Nordeste 0 -- -- 50
2018-05-19 20:00:00 21.1 4 Nordeste 14 Norte 0 -- -- 45
2018-05-19 19:00:00 20.8 7 Nordeste 32 Nordeste 0 -- -- 42
2018-05-19 18:00:00 21.6 13 Norte 28 Norte 0 -- -- 44
2018-05-19 17:00:00 22.2 10 Norte 23 Norte 0 -- -- 45
2018-05-19 16:00:00 21.2 7 Nordeste 18 Norte 0 -- -- 47
2018-05-19 15:00:00 21.2 9 Nordeste 20 Nordeste 0 -- -- 49
2018-05-19 14:00:00 20.3 6 Norte 15 Este 0 -- -- 52
2018-05-19 13:00:00 18.9 7 Nordeste 17 Norte 0 -- -- 63
2018-05-19 12:00:00 17.4 5 Nordeste 13 Nordeste 0 -- -- 68
2018-05-19 11:00:00 14.2 8 Este 19 Este 0 -- -- 83
2018-05-19 10:00:00 12.4 8 Este 14 Este 0 -- -- 89
2018-05-19 09:00:00 10.4 10 Este 14 Este 0 -- -- 98
2018-05-19 08:00:00 5.8 4 Sur 6 Sur 0 -- -- 95
2018-05-19 07:00:00 5.7 4 Sur 5 Sur 0 -- -- 94
2018-05-19 06:00:00 6.2 3 Sur 6 Sudeste 0 -- -- 94
2018-05-19 05:00:00 6.6 4 Oeste 6 Sur 0 -- -- 92
2018-05-19 04:00:00 7.5 2 Sur 6 Sur 0 -- -- 92
2018-05-19 03:00:00 8.5 0 Calma 7 Noroeste 0 -- -- 90
2018-05-19 02:00:00 9.4 2 Nordeste 5 Nordeste 0 -- -- 90
2018-05-19 01:00:00 10.8 2 Oeste 5 Norte 0 -- -- 88
2018-05-19 00:00:00 11.9 4 Nordeste 10 Este 0 -- -- 83
2018-05-18 23:00:00 12.6 6 Sur 9 Sur 0 -- -- 86
2018-05-18 22:00:00 13.6 0 Calma 19 Este 0 -- -- 76
2018-05-18 21:00:00 14.2 13 Este 49 Este 0 -- -- 74
2018-05-18 20:00:00 17.9 23 Nordeste 42 Este 0 -- -- 58
2018-05-18 19:00:00 19.4 6 Sudoeste 21 Sudoeste 0 -- -- 53
2018-05-18 18:00:00 19.2 8 Oeste 17 Oeste 0 -- -- 52
2018-05-18 17:00:00 19 10 Oeste 18 Sur 0 -- -- 55
2018-05-18 16:00:00 19.6 10 Sur 24 Sur 0 -- -- 54
2018-05-18 15:00:00 19.5 14 Este 27 Este 0 -- -- 51
2018-05-18 14:00:00 18.7 13 Nordeste 30 Este 0 -- -- 62
2018-05-18 13:00:00 16.7 11 Nordeste 19 Nordeste 0 -- -- 68
2018-05-18 12:00:00 15.4 10 Nordeste 21 Nordeste 0 -- -- 72
2018-05-18 11:00:00 15 13 Nordeste 22 Nordeste 0.2 -- -- 71
2018-05-18 10:00:00 13.5 11 Este 16 Este 0 -- -- 78
2018-05-18 09:00:00 11.5 0 Calma 3 Sudoeste 0 -- -- 94
2018-05-18 08:00:00 10 0 Calma 7 Nordeste 0 -- -- 94
2018-05-18 07:00:00 10.4 5 Este 12 Nordeste 0 -- -- 94
2018-05-18 06:00:00 10.2 4 Nordeste 9 Norte 0 -- -- 96
2018-05-18 05:00:00 9.7 3 Norte 8 Norte 0 -- -- 94
2018-05-18 04:00:00 10.2 3 Nordeste 12 Nordeste 0 -- -- 92
2018-05-18 03:00:00 10.9 7 Nordeste 12 Nordeste 2.8 -- -- 93
2018-05-18 02:00:00 11.1 3 Nordeste 10 Noroeste 2 -- -- 92
2018-05-18 01:00:00 11.5 5 Noroeste 10 Noroeste 0.8 -- -- 90
2018-05-18 00:00:00 11.8 6 Oeste 16 Norte 2.2 -- -- 87
2018-05-17 23:00:00 13.5 9 Norte 32 Nordeste 0.2 -- -- 70
2018-05-17 22:00:00 14.9 15 Nordeste 42 Norte 0 -- -- 59
2018-05-17 21:00:00 17.1 3 Sudeste 21 Sur 0 -- -- 56
2018-05-17 20:00:00 18 16 Sudeste 30 Este 0 -- -- 53
2018-05-17 19:00:00 19.2 13 Norte 38 Noroeste 0 -- -- 44
2018-05-17 18:00:00 22.8 11 Noroeste 21 Oeste 0 -- -- 31
2018-05-17 17:00:00 23.2 13 Oeste 24 Noroeste 0 -- -- 35
2018-05-17 16:00:00 22.6 13 Noroeste 24 Noroeste 0 -- -- 39
2018-05-17 15:00:00 21.9 12 Noroeste 24 Oeste 0 -- -- 42
2018-05-17 14:00:00 20.6 8 Noroeste 20 Norte 0 -- -- 46
2018-05-17 13:00:00 18.9 6 Norte 13 Noroeste 0 -- -- 54
2018-05-17 12:00:00 16.8 3 Este 9 Norte 0 -- -- 61
2018-05-17 11:00:00 14.5 4 Norte 10 Este 0 -- -- 68
2018-05-17 10:00:00 11.9 6 Norte 15 Este 0 -- -- 76
2018-05-17 09:00:00 9.6 8 Nordeste 14 Nordeste 0 -- -- 86
2018-05-17 08:00:00 6.2 6 Norte 9 Norte 0 -- -- 93
2018-05-17 07:00:00 5 6 Sur 8 Sur 0 -- -- 88
2018-05-17 06:00:00 6.2 2 Nordeste 8 Nordeste 0 -- -- 88
2018-05-17 05:00:00 6.7 3 Este 10 Nordeste 0 -- -- 87
2018-05-17 04:00:00 7.9 2 Este 9 Nordeste 0 -- -- 81
2018-05-17 03:00:00 9.3 4 Norte 5 Norte 0 -- -- 77
2018-05-17 02:00:00 11.7 3 Norte 13 Este 0 -- -- 69
2018-05-17 01:00:00 13 9 Este 25 Este 0 -- -- 65
2018-05-17 00:00:00 15.1 14 Nordeste 22 Nordeste 0 -- -- 58
2018-05-16 23:00:00 15.2 8 Nordeste 17 Nordeste 0 -- -- 53
2018-05-16 22:00:00 17.1 5 Nordeste 16 Norte 0 -- -- 48
2018-05-16 21:00:00 20.9 7 Norte 18 Nordeste 0 -- -- 37
2018-05-16 20:00:00 22.2 8 Norte 26 Nordeste 0 -- -- 33
2018-05-16 19:00:00 22.7 8 Nordeste 23 Nordeste 0 -- -- 32
2018-05-16 18:00:00 22.8 10 Nordeste 22 Nordeste 0 -- -- 33
2018-05-16 17:00:00 22.3 12 Nordeste 27 Nordeste 0 -- -- 33
2018-05-16 16:00:00 21.6 16 Nordeste 28 Nordeste 0 -- -- 40
2018-05-16 15:00:00 20.3 11 Nordeste 26 Nordeste 0 -- -- 44
2018-05-16 14:00:00 19.2 10 Nordeste 26 Nordeste 0 -- -- 48
2018-05-16 13:00:00 17.8 10 Nordeste 24 Norte 0 -- -- 51
2018-05-16 12:00:00 16.2 10 Nordeste 19 Nordeste 0 -- -- 50
2018-05-16 11:00:00 13.6 11 Nordeste 24 Este 0 -- -- 50
2018-05-16 10:00:00 11.4 13 Este 24 Este 0 -- -- 52
2018-05-16 09:00:00 9.3 10 Nordeste 21 Nordeste 0 -- -- 53
2018-05-16 08:00:00 6 6 Este 9 Este 0 -- -- 69
2018-05-16 07:00:00 5.3 5 Este 15 Nordeste 0 -- -- 69
2018-05-16 06:00:00 6.4 5 Nordeste 19 Nordeste 0 -- -- 62
2018-05-16 05:00:00 6.6 4 Nordeste 12 Nordeste 0 -- -- 69
2018-05-16 04:00:00 6.9 4 Norte 12 Norte 0 -- -- 75
2018-05-16 03:00:00 8.5 6 Noroeste 9 Nordeste 0 -- -- 75
2018-05-16 02:00:00 10.1 10 Nordeste 22 Este 0 -- -- 71
2018-05-16 01:00:00 11.2 10 Este 21 Este 0 -- -- 67
2018-05-16 00:00:00 12.8 13 Este 21 Nordeste 0 -- -- 61
2018-05-15 23:00:00 14.1 10 Este 20 Este 0 -- -- 55
2018-05-15 22:00:00 15.2 4 Nordeste 17 Nordeste 0 -- -- 51
2018-05-15 21:00:00 18.9 8 Nordeste 22 Nordeste 0 -- -- 40
2018-05-15 20:00:00 19.9 13 Nordeste 28 Este 0 -- -- 38
2018-05-15 19:00:00 20.4 14 Nordeste 30 Este 0 -- -- 38
2018-05-15 18:00:00 20.5 13 Nordeste 32 Norte 0 -- -- 38
2018-05-15 17:00:00 19.8 13 Nordeste 31 Este 0 -- -- 36
2018-05-15 16:00:00 19.2 15 Nordeste 28 Este 0 -- -- 38
2018-05-15 15:00:00 18.1 15 Nordeste 35 Nordeste 0 -- -- 35
2018-05-15 14:00:00 16.8 18 Nordeste 35 Nordeste 0 -- -- 35
2018-05-15 13:00:00 15.4 17 Nordeste 33 Nordeste 0 -- -- 34
2018-05-15 12:00:00 13.6 17 Nordeste 40 Este 0 -- -- 37
2018-05-15 11:00:00 11.5 26 Este 39 Este 0 -- -- 42
2018-05-15 10:00:00 9.5 20 Este 33 Nordeste 0 -- -- 52
2018-05-15 09:00:00 6.6 12 Este 25 Nordeste 0 -- -- 73
2018-05-15 08:00:00 2.5 4 Sur 7 Este 0 -- -- 87
2018-05-15 07:00:00 2.8 2 Norte 4 Nordeste 0 -- -- 84
2018-05-15 06:00:00 3.9 2 Este 12 Nordeste 0 -- -- 77
2018-05-15 05:00:00 5.3 6 Nordeste 22 Este 0 -- -- 77
2018-05-15 04:00:00 5.9 13 Este 18 Nordeste 0 -- -- 76
2018-05-15 03:00:00 6.5 10 Nordeste 24 Este 0 -- -- 75
2018-05-15 02:00:00 7.7 19 Este 29 Este 0 -- -- 70
2018-05-15 01:00:00 5.4 2 Noroeste 5 Sur 0 -- -- 82
2018-05-15 00:00:00 6.9 5 Sur 8 Sur 0 -- -- 78
2018-05-14 23:00:00 9.7 4 Sur 9 Sur 0 -- -- 66
2018-05-14 22:00:00 12.4 3 Nordeste 15 Nordeste 0 -- -- 57
2018-05-14 21:00:00 16 10 Nordeste 23 Nordeste 0 -- -- 46
2018-05-14 20:00:00 16.9 10 Nordeste 25 Norte 0 -- -- 43
2018-05-14 19:00:00 17.1 11 Nordeste 30 Nordeste 0 -- -- 44
2018-05-14 18:00:00 17.3 12 Norte 35 Nordeste 0 -- -- 44
2018-05-14 17:00:00 17 13 Nordeste 28 Nordeste 0 -- -- 46
2018-05-14 16:00:00 16.5 16 Nordeste 29 Nordeste 0 -- -- 50
2018-05-14 15:00:00 15 12 Norte 32 Norte 0 -- -- 63
2018-05-14 14:00:00 13.8 15 Noroeste 25 Norte 0 -- -- 68
2018-05-14 13:00:00 13.9 11 Norte 27 Noroeste 0 -- -- 66
2018-05-14 12:00:00 12.9 13 Noroeste 28 Oeste 0 -- -- 70
2018-05-14 11:00:00 11.2 14 Noroeste 27 Oeste 0 -- -- 77
2018-05-14 10:00:00 9.5 12 Noroeste 24 Oeste 0 -- -- 83
2018-05-14 09:00:00 7.9 10 Oeste 20 Oeste 0 -- -- 86
2018-05-14 08:00:00 6.5 6 Sudoeste 16 Sudoeste 0 -- -- 89
2018-05-14 07:00:00 6.5 8 Sudoeste 19 Oeste 0 -- -- 87
2018-05-14 06:00:00 7 11 Oeste 17 Oeste 0 -- -- 86
2018-05-14 05:00:00 6.8 10 Oeste 18 Oeste 0 -- -- 86
2018-05-14 04:00:00 6.5 8 Oeste 14 Oeste 0 -- -- 85
2018-05-14 03:00:00 6.9 6 Oeste 13 Oeste 0 -- -- 85
2018-05-14 02:00:00 6.2 6 Sudoeste 11 Oeste 0 -- -- 86
2018-05-14 01:00:00 6.5 6 Oeste 12 Sudoeste 0 -- -- 81
2018-05-11 20:00:00 -- -- -- -- -- -- -- -- --
2018-05-11 19:00:00 20.6 17 Sudoeste 34 Sudoeste 0 -- -- 48
2018-05-11 18:00:00 20.5 19 Sur 30 Sur 0 -- -- 52
2018-05-11 17:00:00 21 16 Sudoeste 32 Oeste 0 -- -- 49
2018-05-11 16:00:00 20.9 17 Sudoeste 40 Oeste 0 -- -- 50
2018-05-11 15:00:00 21.4 21 Oeste 45 Oeste 0 -- -- 48
2018-05-11 14:00:00 20.4 18 Sudoeste 32 Sudoeste 0 -- -- 54
2018-05-11 13:00:00 19.9 15 Oeste 29 Oeste 0 -- -- 61
2018-05-11 12:00:00 18.3 15 Oeste 25 Sudoeste 0 -- -- 66
2018-05-11 11:00:00 17.7 15 Oeste 25 Oeste 0 -- -- 66
2018-05-11 10:00:00 15.1 13 Oeste 23 Oeste 0 -- -- 70
2018-05-11 09:00:00 11 4 Noroeste 10 Noroeste 0 -- -- 89
2018-05-11 08:00:00 6.6 3 Sudeste 4 Sudeste 0 -- -- 92
2018-05-11 07:00:00 5.3 2 Este 4 Sudeste 0 -- -- 89
2018-05-11 06:00:00 5.8 0 Calma 3 Oeste 0 -- -- 88
2018-05-11 05:00:00 6.5 0 Calma 7 Sudeste 0 -- -- 86
2018-05-11 04:00:00 7 5 Sur 8 Sur 0 -- -- 84
2018-05-11 03:00:00 7.3 4 Sur 8 Sur 0 -- -- 83
2018-05-11 02:00:00 8.3 3 Sur 6 Sudeste 0 -- -- 80
2018-05-11 01:00:00 9.6 5 Noroeste 8 Noroeste 0 -- -- 77
2018-05-11 00:00:00 10.8 2 Sur 8 Este 0 -- -- 72
2018-05-10 23:00:00 13.3 8 Este 13 Este 0 -- -- 64
2018-05-10 22:00:00 15.5 4 Nordeste 12 Nordeste 0 -- -- 58
2018-05-10 21:00:00 19.2 5 Nordeste 13 Nordeste 0 -- -- 46
2018-05-10 20:00:00 20.6 5 Nordeste 15 Nordeste 0 -- -- 38
2018-05-10 19:00:00 20.7 8 Norte 18 Este 0 -- -- 37
2018-05-10 18:00:00 21 5 Norte 22 Este 0 -- -- 39
2018-05-10 17:00:00 20.1 8 Nordeste 22 Nordeste 0 -- -- 43
2018-05-10 16:00:00 19.7 10 Nordeste 27 Este 0 -- -- 42
2018-05-10 15:00:00 19 15 Este 30 Nordeste 0 -- -- 50
2018-05-10 14:00:00 17.9 11 Nordeste 30 Este 0 -- -- 52
2018-05-10 13:00:00 16.7 16 Nordeste 38 Nordeste 0 -- -- 54
2018-05-10 12:00:00 15.5 18 Nordeste 39 Este 0 -- -- 56
2018-05-10 11:00:00 14.1 23 Nordeste 39 Nordeste 0 -- -- 59
2018-05-10 10:00:00 12.7 25 Nordeste 40 Nordeste 0 -- -- 60
2018-05-10 09:00:00 11.1 23 Este 37 Este 0 -- -- 69
2018-05-10 08:00:00 10.4 15 Nordeste 27 Nordeste 0 -- -- 81
2018-05-10 07:00:00 11 13 Nordeste 28 Nordeste 0 -- -- 84
2018-05-10 06:00:00 10.7 9 Nordeste 24 Norte 0 -- -- 86
2018-05-10 05:00:00 10.5 4 Norte 11 Oeste 0 -- -- 84
2018-05-10 04:00:00 10.6 5 Noroeste 12 Oeste 0 -- -- 83
2018-05-10 03:00:00 11.1 7 Sudoeste 13 Oeste 0 -- -- 82
2018-05-10 02:00:00 11.9 6 Sudoeste 14 Oeste 0 -- -- 81
2018-05-10 01:00:00 12.7 9 Oeste 18 Oeste 0 -- -- 81
2018-05-10 00:00:00 13.9 9 Oeste 18 Oeste 0 -- -- 77
2018-05-09 23:00:00 14.7 11 Oeste 19 Oeste 0 -- -- 73
2018-05-09 22:00:00 15.9 11 Oeste 33 Oeste 0 -- -- 72
2018-05-09 21:00:00 17.5 19 Oeste 34 Oeste 0 -- -- 65
2018-05-09 20:00:00 19.4 14 Oeste 27 Oeste 0 -- -- 56
2018-05-09 19:00:00 19.9 13 Oeste 26 Oeste 0 -- -- 62
2018-05-09 18:00:00 20.3 16 Oeste 39 Oeste 0 -- -- 62
2018-05-09 17:00:00 19.9 13 Oeste 23 Sudoeste 0 -- -- 67
2018-05-09 16:00:00 18.9 15 Oeste 24 Oeste 0 -- -- 72
2018-05-09 15:00:00 18 11 Oeste 24 Oeste 0 -- -- 73
2018-05-09 14:00:00 17.8 14 Oeste 28 Sudoeste 0 -- -- 75
2018-05-09 13:00:00 17.4 10 Oeste 15 Oeste 0 -- -- 75
2018-05-09 12:00:00 16.9 5 Sudoeste 13 Norte 0 -- -- 71
2018-05-09 11:00:00 15.2 5 Este 12 Este 0 -- -- 74
2018-05-09 10:00:00 13.6 5 Este 12 Este 0 -- -- 77
2018-05-09 09:00:00 12.4 5 Este 10 Este 0 -- -- 82
2018-05-09 08:00:00 11.2 3 Norte 7 Noroeste 0 -- -- 90
2018-05-09 07:00:00 11.1 3 Nordeste 14 Este 0 -- -- 91
2018-05-09 06:00:00 11.2 8 Este 13 Este 0 -- -- 89
2018-05-09 05:00:00 12.9 4 Este 10 Este 0 -- -- 88
2018-05-09 04:00:00 11.8 0 Calma 6 Sur 0 -- -- 93
2018-05-09 03:00:00 11.2 5 Sur 7 Sur 0 -- -- 91
2018-05-09 02:00:00 11.4 4 Norte 9 Norte 0 -- -- 89
2018-05-09 01:00:00 12.8 0 Calma 8 Sur 0 -- -- 87
2018-05-09 00:00:00 14 6 Sur 7 Sur 0 -- -- 84
2018-05-08 23:00:00 16 3 Nordeste 15 Sudoeste 0 -- -- 78
2018-05-08 22:00:00 17.6 5 Oeste 8 Sur 0 -- -- 71
2018-05-08 21:00:00 20.1 0 Calma 6 Sur 0 -- -- 64
2018-05-08 20:00:00 19.7 4 Noroeste 26 Oeste 0 -- -- 62
2018-05-08 19:00:00 20.9 15 Oeste 23 Oeste 0 -- -- 52
2018-05-08 18:00:00 23.2 4 Nordeste 17 Norte 0 -- -- 48
2018-05-08 17:00:00 23.6 11 Noroeste 19 Noroeste 0 -- -- 48
2018-05-08 16:00:00 24.1 5 Norte 15 Norte 0 -- -- 45
2018-05-08 15:00:00 22.7 7 Norte 21 Noroeste 0 -- -- 47
2018-05-08 14:00:00 21.9 5 Norte 17 Norte 0 -- -- 51
2018-05-08 13:00:00 21.6 8 Este 15 Este 0 -- -- 57
2018-05-08 12:00:00 20.1 6 Este 13 Este 0 -- -- 62
2018-05-08 11:00:00 18.3 5 Este 13 Este 0 -- -- 70
2018-05-08 10:00:00 15.8 3 Este 6 Este 0 -- -- 80
2018-05-08 09:00:00 13.8 2 Sudoeste 5 Sur 0 -- -- 87
2018-05-08 08:00:00 11.5 0 Calma 3 Sur 0 -- -- 92
2018-05-08 07:00:00 11.2 0 Calma 5 Nordeste 0 -- -- 91
2018-05-08 06:00:00 11.3 2 Este 3 Sudeste 0 -- -- 91
2018-05-08 05:00:00 11.4 2 Oeste 5 Este 0 -- -- 90
2018-05-08 04:00:00 12.1 2 Sudeste 10 Sur 0 -- -- 86
2018-05-08 03:00:00 13.2 3 Sur 15 Sudoeste 0 -- -- 85
2018-05-08 02:00:00 13.7 3 Sur 12 Este 0 -- -- 83
2018-05-08 01:00:00 14.1 3 Sudeste 14 Sur 0 -- -- 82
2018-05-08 00:00:00 14.6 9 Sudeste 15 Este 0 -- -- 79
2018-05-07 23:00:00 15.2 7 Sudoeste 25 Oeste 0 -- -- 76
2018-05-07 22:00:00 16.6 13 Sudoeste 26 Oeste 0 -- -- 69
2018-05-07 21:00:00 18.7 10 Sudoeste 20 Oeste 0 -- -- 65
2018-05-07 20:00:00 20.7 8 Sudoeste 24 Sudoeste 0 -- -- 58
2018-05-07 19:00:00 23 3 Este 19 Nordeste 0 -- -- 42
2018-05-07 18:00:00 23.3 9 Nordeste 25 Nordeste 0 -- -- 42
2018-05-07 17:00:00 23.7 10 Nordeste 21 Nordeste 0 -- -- 42
2018-05-07 16:00:00 22.4 8 Nordeste 20 Este 0 -- -- 47
2018-05-07 15:00:00 23 10 Nordeste 23 Nordeste 0 -- -- 45
2018-05-07 14:00:00 22.2 8 Norte 16 Norte 0 -- -- 50
2018-05-07 13:00:00 21.2 6 Norte 24 Este 0 -- -- 59
2018-05-07 12:00:00 20.5 3 Norte 10 Este 0 -- -- 55
2018-05-07 11:00:00 19 3 Sudeste 10 Este 0 -- -- 61
2018-05-07 10:00:00 16.2 3 Nordeste 7 Nordeste 0 -- -- 79
2018-05-07 09:00:00 11.3 2 Sudoeste 7 Sur 0 -- -- 94
2018-05-07 08:00:00 8.4 4 Sur 7 Sur 0 -- -- 95
2018-05-07 07:00:00 8.3 4 Sur 10 Sur 0 -- -- 93
2018-05-07 06:00:00 9.2 4 Sur 11 Sudoeste 0 -- -- 94
2018-05-07 05:00:00 9.3 4 Sur 10 Sur 0 -- -- 94
2018-05-07 04:00:00 9.8 5 Sur 10 Noroeste 0 -- -- 91
2018-05-07 03:00:00 10.4 3 Noroeste 6 Este 0 -- -- 92
2018-05-07 02:00:00 11.4 0 Calma 7 Sur 0 -- -- 89
2018-05-07 01:00:00 12.7 3 Sudeste 13 Sur 0 -- -- 86
2018-05-07 00:00:00 14 5 Sudeste 13 Sudoeste 0 -- -- 88
2018-05-06 23:00:00 14.4 10 Noroeste 21 Este 0.6 -- -- 80
2018-05-06 22:00:00 15.8 12 Este 21 Nordeste 0 -- -- 77
2018-05-06 21:00:00 17.5 5 Sur 25 Sudoeste 0 -- -- 63
2018-05-06 20:00:00 17.9 14 Sudoeste 32 Oeste 0 -- -- 64
2018-05-06 19:00:00 18.8 20 Oeste 32 Sudoeste 0 -- -- 64
2018-05-06 18:00:00 19.8 18 Sudoeste 45 Sudoeste 0 -- -- 62
2018-05-06 17:00:00 22.7 6 Norte 22 Nordeste 0 -- -- 45
2018-05-06 16:00:00 22 7 Norte 17 Nordeste 0 -- -- 47
2018-05-06 15:00:00 21.2 8 Norte 17 Norte 0 -- -- 51
2018-05-06 14:00:00 20.2 8 Norte 17 Nordeste 0 -- -- 55
2018-05-06 13:00:00 19.2 6 Norte 18 Nordeste 0 -- -- 62
2018-05-06 12:00:00 17.7 5 Noroeste 13 Norte 0 -- -- 71
2018-05-06 11:00:00 15.6 4 Nordeste 14 Nordeste 0 -- -- 72
2018-05-06 10:00:00 12.8 6 Este 14 Nordeste 0 -- -- 80
2018-05-06 09:00:00 8.4 0 Calma 5 Norte 0 -- -- 95
2018-05-06 08:00:00 4.7 0 Calma 4 Sudoeste 0 -- -- 93
2018-05-06 07:00:00 4.7 2 Sudoeste 5 Sur 0 -- -- 92
2018-05-06 06:00:00 5.3 0 Calma 7 Sur 0 -- -- 92
2018-05-06 05:00:00 5.9 6 Sur 9 Sur 0 -- -- 89
2018-05-06 04:00:00 7.5 0 Calma 5 Noroeste 0 -- -- 87
2018-05-06 03:00:00 9 3 Este 14 Este 0 -- -- 84
2018-05-06 02:00:00 10.6 12 Este 22 Este 0 -- -- 82
2018-05-06 01:00:00 9.4 12 Este 21 Este 0 -- -- 91
2018-05-06 00:00:00 9.4 4 Noroeste 13 Norte 0 -- -- 85
2018-05-05 23:00:00 11.5 5 Sur -- -- 0 -- -- 78
2018-05-05 22:00:00 14.6 0 Calma 6 Nordeste 0 -- -- 68
2018-05-05 21:00:00 17.7 5 Nordeste 10 Norte 0 -- -- 59
2018-05-05 20:00:00 18.9 4 Norte 15 Norte 0 -- -- 53
2018-05-05 19:00:00 19.3 8 Nordeste 14 Nordeste 0 -- -- 50
2018-05-05 18:00:00 19 8 Nordeste 15 Nordeste 0 -- -- 53
2018-05-05 17:00:00 18.3 8 Norte 19 Nordeste 0 -- -- 53
2018-05-05 16:00:00 17.7 9 Norte 18 Nordeste 0 -- -- 56
2018-05-05 15:00:00 16.8 7 Norte 17 Norte 0 -- -- 56
2018-05-05 14:00:00 15.8 6 Norte 17 Noroeste 0 -- -- 64
2018-05-05 13:00:00 15 5 Nordeste 18 Este 0 -- -- 62
2018-05-05 12:00:00 13.1 11 Este 22 Este 0 -- -- 66
2018-05-05 11:00:00 11 13 Este 22 Este 0 -- -- 74
2018-05-05 10:00:00 8.4 14 Este 22 Este 0 -- -- 80
2018-05-05 09:00:00 6.1 9 Este 15 Este 0 -- -- 87
2018-05-05 08:00:00 3.5 0 Calma 5 Nordeste 0 -- -- 91
2018-05-05 07:00:00 3.3 4 Este 6 Nordeste 0 -- -- 91
2018-05-05 06:00:00 4.1 0 Calma 15 Este 0 -- -- 88
2018-05-05 05:00:00 4.5 10 Nordeste 16 Nordeste 0 -- -- 90
2018-05-05 04:00:00 4.8 5 Nordeste 11 Nordeste 0 -- -- 87
2018-05-05 03:00:00 6 2 Noroeste 13 Este 0 -- -- 83
2018-05-05 02:00:00 7.2 12 Nordeste 24 Nordeste 0 -- -- 79
2018-05-05 01:00:00 7.9 16 Nordeste 27 Nordeste 0 -- -- 76
2018-05-05 00:00:00 9 15 Nordeste 28 Nordeste 0 -- -- 72
2018-05-04 23:00:00 10.2 19 Nordeste 30 Nordeste 0 -- -- 68
2018-05-04 22:00:00 11 8 Nordeste 19 Norte 0 -- -- 65
2018-05-04 21:00:00 13.2 10 Nordeste 24 Nordeste 0 -- -- 56
2018-05-04 20:00:00 14.9 13 Nordeste 28 Nordeste 0 -- -- 52
2018-05-04 19:00:00 15.5 13 Nordeste 37 Este 0 -- -- 50
2018-05-04 18:00:00 15.6 15 Nordeste 42 Nordeste 0 -- -- 48
2018-05-04 17:00:00 15.6 21 Nordeste 35 Nordeste 0 -- -- 47
2018-05-04 16:00:00 15.1 19 Nordeste 38 Nordeste 0 -- -- 51
2018-05-04 15:00:00 14.3 20 Nordeste 42 Nordeste 0 -- -- 53
2018-05-04 14:00:00 13 24 Nordeste 42 Este 0 -- -- 54
2018-05-04 13:00:00 11.4 18 Nordeste 41 Nordeste 0 -- -- 55
2018-05-04 12:00:00 10.2 22 Nordeste 41 Nordeste 0 -- -- 59
2018-05-04 11:00:00 8.2 25 Nordeste 41 Nordeste 0 -- -- 63
2018-05-04 10:00:00 6.7 24 Nordeste 42 Nordeste 0 -- -- 67
2018-05-04 09:00:00 5 17 Nordeste 33 Nordeste 0 -- -- 76
2018-05-04 08:00:00 2.8 7 Nordeste 23 Nordeste 0 -- -- 84
2018-05-04 07:00:00 2.8 10 Nordeste 23 Este 0 -- -- 82
2018-05-04 06:00:00 2.7 10 Nordeste 23 Nordeste 0 -- -- 84
2018-05-04 05:00:00 2.6 6 Nordeste 14 Este 0 -- -- 82
2018-05-04 04:00:00 3.3 9 Nordeste 21 Este 0 -- -- 80
2018-05-04 03:00:00 4.3 14 Este 26 Este 0 -- -- 76
2018-05-04 02:00:00 4.8 14 Este 21 Este 0 -- -- 76
2018-05-04 01:00:00 5.7 11 Nordeste 26 Este 0 -- -- 72
2018-05-04 00:00:00 7.2 19 Este 39 Este 0 -- -- 65
2018-05-03 23:00:00 8.6 19 Nordeste 32 Nordeste 0 -- -- 63
2018-05-03 22:00:00 9.7 15 Este 30 Nordeste 0 -- -- 63
2018-05-03 21:00:00 12.3 17 Nordeste 27 Nordeste 0 -- -- 55
2018-05-03 20:00:00 13.5 11 Nordeste 29 Nordeste 0 -- -- 52
2018-05-03 19:00:00 14.4 13 Nordeste 31 Nordeste 0 -- -- 50
2018-05-03 18:00:00 14.5 13 Nordeste 33 Nordeste 0 -- -- 48
2018-05-03 17:00:00 14.2 13 Nordeste 31 Nordeste 0 -- -- 52
2018-05-03 16:00:00 14.5 18 Nordeste 35 Nordeste 0 -- -- 55
2018-05-03 15:00:00 13.7 16 Nordeste 30 Este 0 -- -- 62
2018-05-03 14:00:00 13.1 13 Nordeste 30 Nordeste 0 -- -- 64
2018-05-03 13:00:00 12.7 12 Nordeste 27 Nordeste 0 -- -- 66
2018-05-03 12:00:00 11.7 10 Nordeste 27 Nordeste 0 -- -- 72
2018-05-03 11:00:00 11.5 8 Norte 20 Nordeste 0 -- -- 74
2018-05-03 10:00:00 10.2 6 Norte 15 Norte 0 -- -- 83
2018-05-03 09:00:00 8.8 6 Oeste 11 Oeste 0 -- -- 91
2018-05-03 08:00:00 8.1 6 Oeste 13 Oeste 0 -- -- 93
2018-05-03 07:00:00 7.9 6 Oeste 9 Oeste 0 -- -- 93
2018-05-03 06:00:00 7.7 4 Oeste 9 Sudoeste 0 -- -- 92
2018-05-03 05:00:00 7.7 5 Sudoeste 6 Sudoeste 0 -- -- 90
2018-05-03 04:00:00 8.7 5 Sudoeste 7 Oeste 0 -- -- 88
2018-05-03 03:00:00 9.4 4 Oeste 10 Oeste 0 -- -- 86
2018-05-03 02:00:00 9.7 7 Oeste 21 Noroeste 0 -- -- 85
2018-05-03 01:00:00 10.2 8 Oeste 18 Oeste 0 -- -- 82
2018-05-03 00:00:00 10.6 9 Noroeste 21 Noroeste 0 -- -- 79
2018-05-02 23:00:00 11.2 10 Noroeste 21 Noroeste 0 -- -- 76
2018-05-02 22:00:00 11.7 5 Noroeste 23 Noroeste 0 -- -- 72
2018-05-02 21:00:00 12.7 12 Noroeste 22 Oeste 0 -- -- 67
2018-05-02 20:00:00 13.3 13 Noroeste 24 Oeste 0 -- -- 64
2018-05-02 19:00:00 13.7 15 Noroeste 23 Oeste 0 -- -- 61
2018-05-02 18:00:00 14.1 12 Noroeste 27 Oeste 0 -- -- 58
2018-05-02 17:00:00 14 12 Noroeste 28 Noroeste 0 -- -- 57
2018-05-02 16:00:00 14 14 Oeste 32 Oeste 0 -- -- 50
2018-05-02 15:00:00 13.3 15 Oeste 27 Oeste 0 -- -- 53
2018-05-02 14:00:00 11.6 14 Oeste 25 Oeste 0 -- -- 54
2018-05-02 13:00:00 10.7 10 Oeste 26 Oeste 0 -- -- 52
2018-05-02 12:00:00 9.8 8 Oeste 25 Oeste 0 -- -- 58
2018-05-02 11:00:00 8.3 12 Oeste 20 Oeste 0 -- -- 60
2018-05-02 10:00:00 6.5 13 Oeste 20 Oeste 0 -- -- 68
2018-05-02 09:00:00 5.2 12 Oeste 20 Oeste 0 -- -- 76
2018-05-02 08:00:00 2.4 6 Sur 8 Sur 0 -- -- 87
2018-05-02 07:00:00 2.4 5 Sur 10 Sur 0 -- -- 83
2018-05-02 06:00:00 2.6 7 Sur 10 Sur 0 -- -- 83
2018-05-02 05:00:00 3.4 5 Sudoeste 8 Sur 0 -- -- 84
2018-05-02 04:00:00 3.7 6 Sur 12 Sur 0 -- -- 85
2018-05-02 03:00:00 4.1 4 Sur 10 Sur 0 -- -- 84
2018-05-02 02:00:00 5.1 5 Sudoeste 13 Sudoeste 0 -- -- 80
2018-05-02 01:00:00 5.3 8 Oeste 13 Oeste 0 -- -- 82
2018-05-02 00:00:00 4.6 5 Sur 8 Sur 0 -- -- 83
2018-05-01 23:00:00 5.6 5 Sur 8 Sur 0 -- -- 77
2018-05-01 22:00:00 8.2 4 Sudeste 5 Sudeste 0 -- -- 69
2018-05-01 21:00:00 11.7 4 Sudoeste 14 Oeste 0 -- -- 45
2018-05-01 20:00:00 12.8 6 Oeste 18 Oeste 0 -- -- 43
2018-05-01 19:00:00 12.8 5 Norte 13 Este 0 -- -- 46
2018-05-01 18:00:00 12.2 5 Este 17 Nordeste 0 -- -- 44
2018-05-01 17:00:00 12.4 6 Sur 18 Sudoeste 0 -- -- 45
2018-05-01 16:00:00 11.8 6 Este 22 Nordeste 0 -- -- 44
2018-05-01 15:00:00 10.3 11 Nordeste 24 Este 0 -- -- 54
2018-05-01 14:00:00 10.3 10 Nordeste 21 Nordeste 0 -- -- 55
2018-05-01 13:00:00 9.2 10 Nordeste 23 Este 0 -- -- 61
2018-05-01 12:00:00 8.8 16 Este 28 Este 0 -- -- 65
2018-05-01 11:00:00 7.8 19 Este 32 Este 0 -- -- 70
2018-05-01 10:00:00 6.3 17 Este 24 Este 0 -- -- 79
2018-05-01 09:00:00 3.7 11 Este 16 Este 0 -- -- 96
2018-05-01 08:00:00 0.7 2 Sudoeste 4 Este 0 -- -- 96
2018-05-01 07:00:00 0.8 2 Oeste 6 Sudeste 0 -- -- 94
2018-05-01 06:00:00 1.6 2 Sudoeste 4 Oeste 0 -- -- 95
2018-05-01 05:00:00 2.2 0 Calma 5 Sur 0 -- -- 94
2018-05-01 04:00:00 3.1 3 Sur 4 Sudeste 0 -- -- 94
2018-05-01 03:00:00 3.8 3 Nordeste 5 Norte 0 -- -- 94
2018-05-01 02:00:00 4.2 3 Noroeste 5 Sudeste 0 -- -- 93
2018-05-01 01:00:00 4.4 4 Sur 6 Sur 0 -- -- 92
2018-05-01 00:00:00 4.3 2 Este 9 Sur 0 -- -- 92
2018-04-30 23:00:00 4.5 6 Sur 12 Sur 0 -- -- 91
2018-04-30 22:00:00 4.7 3 Norte 20 Norte 0.6 -- -- 89
2018-04-30 21:00:00 4.9 11 Norte 29 Norte 0.6 -- -- 88
2018-04-30 20:00:00 5.6 14 Norte 32 Norte 0.2 -- -- 86
2018-04-30 19:00:00 11 16 Oeste 25 Oeste 0 -- -- 52
2018-04-30 18:00:00 10.3 14 Oeste 26 Oeste 0 -- -- 55
2018-04-30 17:00:00 9.8 17 Oeste 28 Oeste 0 -- -- 59
2018-04-30 16:00:00 8.9 14 Oeste 27 Oeste 0 -- -- 61
2018-04-30 15:00:00 8.5 18 Oeste 28 Noroeste 0 -- -- 63
2018-04-30 14:00:00 8.2 18 Oeste 31 Oeste 0 -- -- 69
2018-04-30 13:00:00 7.7 16 Oeste 35 Oeste 0 -- -- 72
2018-04-30 12:00:00 6.5 14 Oeste 28 Oeste 0 -- -- 78
2018-04-30 11:00:00 5 13 Oeste 22 Sudoeste 0 -- -- 88
2018-04-30 10:00:00 3.3 10 Sudoeste 24 Oeste 0.2 -- -- 93
2018-04-30 09:00:00 2.5 7 Sudoeste 12 Sudoeste 0 -- -- 94
2018-04-30 08:00:00 1.1 8 Sudoeste 12 Sudoeste 0 -- -- 95
2018-04-30 07:00:00 -0.1 5 Sur 11 Sudoeste 0 -- -- 94
2018-04-30 06:00:00 0 8 Sur 14 Sur 0 -- -- 94
2018-04-30 05:00:00 0.6 0 Calma 13 Sudoeste 0 -- -- 93
2018-04-30 04:00:00 1.2 6 Sur 13 Sudoeste 0 -- -- 92
2018-04-30 03:00:00 2.1 5 Sudoeste 14 Sudoeste 0 -- -- 92
2018-04-30 02:00:00 2.6 2 Sur 14 Oeste 0 -- -- 92
2018-04-30 01:00:00 2.9 7 Sudoeste 13 Sudoeste 0 -- -- 93
2018-04-30 00:00:00 3.1 4 Oeste 18 Oeste 0.2 -- -- 88
2018-04-29 23:00:00 4.4 9 Oeste 27 Oeste 0.4 -- -- 85
2018-04-29 22:00:00 4.7 17 Sudoeste 27 Sudoeste 0 -- -- 85
2018-04-29 21:00:00 4.6 17 Sudoeste 35 Sudoeste 0 -- -- 84
2018-04-29 20:00:00 5.4 21 Oeste 43 Oeste 0.2 -- -- 82
2018-04-29 19:00:00 3.8 18 Oeste 58 Oeste 0.2 -- -- 90
2018-04-29 18:00:00 8.2 30 Sudoeste 60 Oeste 0 -- -- 65
2018-04-29 17:00:00 9.2 35 Oeste 55 Oeste 0 -- -- 61
2018-04-29 16:00:00 8.1 31 Oeste 53 Oeste 0 -- -- 77
2018-04-29 15:00:00 7.9 22 Oeste 69 Oeste 0.2 -- -- 81
2018-04-29 14:00:00 9.2 32 Oeste 49 Oeste 0.2 -- -- 71
2018-04-29 13:00:00 7.4 29 Oeste 50 Oeste 0.2 -- -- 81
2018-04-29 12:00:00 6.5 21 Oeste 43 Oeste 0 -- -- 82
2018-04-29 11:00:00 5.3 24 Oeste 42 Oeste 0 -- -- 91
2018-04-29 10:00:00 4.6 21 Oeste 37 Sudoeste 0 -- -- 92
2018-04-29 09:00:00 4.2 20 Oeste 34 Oeste 0.4 -- -- 94
2018-04-29 08:00:00 3.5 14 Oeste 28 Oeste 0.8 -- -- 94
2018-04-29 07:00:00 3.3 18 Sudoeste 26 Sudoeste 0.6 -- -- 92
2018-04-29 06:00:00 3.9 8 Sudoeste 18 Sudoeste 1 -- -- 93
2018-04-29 05:00:00 4.2 9 Sudoeste 19 Sudoeste 1.6 -- -- 91
2018-04-29 04:00:00 5 8 Sudoeste 15 Sudoeste 0.6 -- -- 90
2018-04-29 03:00:00 5.4 6 Sudoeste 18 Oeste 0 -- -- 89
2018-04-29 02:00:00 5.5 9 Sudoeste 15 Sudoeste 0 -- -- 89
2018-04-29 01:00:00 5.7 6 Sudoeste 9 Sudoeste 0 -- -- 89
2018-04-29 00:00:00 5.6 5 Oeste 31 Oeste 0 -- -- 86
2018-04-28 23:00:00 6.9 15 Oeste 28 Oeste 0 -- -- 79
2018-04-28 22:00:00 7 5 Sur 12 Oeste 0.2 -- -- 85
2018-04-28 21:00:00 7.1 10 Oeste 29 Oeste 0 -- -- 81
2018-04-28 20:00:00 8.3 13 Oeste 25 Oeste 0 -- -- 75
2018-04-28 19:00:00 8 6 Noroeste 33 Oeste 0.2 -- -- 75
2018-04-28 18:00:00 11.4 18 Sudoeste 32 Sudoeste 0 -- -- 52
2018-04-28 17:00:00 12 18 Oeste 32 Oeste 0 -- -- 50
2018-04-28 16:00:00 12.7 20 Oeste 39 Oeste 0 -- -- 51
2018-04-28 15:00:00 11.6 16 Oeste 33 Oeste 0 -- -- 52
2018-04-28 14:00:00 10.6 17 Sudoeste 30 Sudoeste 0 -- -- 66
2018-04-28 13:00:00 9.2 16 Oeste 31 Sudoeste 0 -- -- 73
2018-04-28 12:00:00 8.2 16 Sudoeste 24 Oeste 0 -- -- 78
2018-04-28 11:00:00 6.8 15 Oeste 26 Oeste 0 -- -- 80
2018-04-28 10:00:00 6.6 16 Oeste 25 Oeste 0 -- -- 84
2018-04-28 09:00:00 5.5 12 Oeste 23 Oeste 0 -- -- 89
2018-04-28 08:00:00 5.2 13 Oeste 23 Sudoeste 0 -- -- 90
2018-04-28 07:00:00 5.1 12 Sudoeste 18 Sudoeste 0 -- -- 90
2018-04-28 06:00:00 5.7 8 Sudoeste 12 Sudoeste 0 -- -- 90
2018-04-28 05:00:00 5.9 3 Sudoeste 11 Oeste 0 -- -- 87
2018-04-28 04:00:00 7.1 7 Sudoeste 12 Sudoeste 0 -- -- 85
2018-04-28 03:00:00 7.6 8 Sudoeste 17 Sudoeste 0 -- -- 80
2018-04-28 02:00:00 8.5 10 Sudoeste 14 Sudoeste 0 -- -- 76
2018-04-28 01:00:00 9.7 8 Sudoeste 14 Sudoeste 0 -- -- 73
2018-04-28 00:00:00 10.5 5 Sudoeste 9 Sudoeste 0 -- -- 73
2018-04-27 23:00:00 12.1 5 Sudoeste 13 Oeste 0 -- -- 65
2018-04-27 22:00:00 13.6 10 Oeste 20 Oeste 0 -- -- 61
2018-04-27 21:00:00 15.1 11 Oeste 18 Oeste 0 -- -- 58
2018-04-27 20:00:00 16.4 13 Oeste 27 Oeste 0 -- -- 55
2018-04-27 19:00:00 17.2 12 Noroeste 31 Noroeste 0 -- -- 53
2018-04-27 18:00:00 17.3 17 Oeste 30 Oeste 0 -- -- 54
2018-04-27 17:00:00 17.2 19 Oeste 45 Oeste 0 -- -- 55
2018-04-27 16:00:00 16.6 18 Oeste 32 Sudoeste 0 -- -- 58
2018-04-27 15:00:00 15.9 15 Oeste 31 Oeste 0 -- -- 59
2018-04-27 14:00:00 15.9 15 Oeste 31 Oeste 0 -- -- 63
2018-04-27 13:00:00 15.1 15 Oeste 28 Oeste 0 -- -- 58
2018-04-27 12:00:00 13.9 13 Oeste 24 Oeste 0 -- -- 58
2018-04-27 11:00:00 12.5 12 Oeste 21 Oeste 0 -- -- 68
2018-04-27 10:00:00 11.2 13 Oeste 20 Oeste 0 -- -- 76
2018-04-27 09:00:00 9.5 13 Oeste 22 Oeste 0 -- -- 81
2018-04-27 08:00:00 7.4 9 Sudoeste 18 Sudoeste 0 -- -- 86
2018-04-27 07:00:00 7.8 9 Sudoeste 19 Oeste 0 -- -- 83
2018-04-27 06:00:00 8.8 11 Oeste 22 Sudoeste 0 -- -- 80
2018-04-27 05:00:00 9.9 13 Oeste 23 Sudoeste 0 -- -- 79
2018-04-27 04:00:00 11.2 10 Sudoeste 20 Sudoeste 0 -- -- 82
2018-04-27 03:00:00 12.8 6 Sudoeste 26 Oeste 0 -- -- 81
2018-04-27 02:00:00 14.2 11 Oeste 23 Oeste 0 -- -- 77
2018-04-27 01:00:00 15.6 19 Oeste 31 Oeste 0 -- -- 76
2018-04-27 00:00:00 15.9 6 Oeste 14 Sur 0 -- -- 75
2018-04-26 23:00:00 15.7 6 Sur 11 Sudeste 0 -- -- 76
2018-04-26 22:00:00 18 5 Sudoeste 12 Sudoeste 0 -- -- 69
2018-04-26 21:00:00 20.8 7 Sur 17 Sur 0 -- -- 61
2018-04-26 20:00:00 23 9 Oeste 22 Oeste 0 -- -- 54
2018-04-26 19:00:00 23.2 13 Oeste 27 Oeste 0 -- -- 52
2018-04-26 18:00:00 23.2 11 Oeste 21 Oeste 0 -- -- 53
2018-04-26 17:00:00 22.4 4 Noroeste 14 Norte 0 -- -- 56
2018-04-26 16:00:00 21.5 5 Nordeste 11 Este 0 -- -- 57
2018-04-26 15:00:00 20.1 6 Este 16 Este 0 -- -- 62
2018-04-26 14:00:00 18.3 10 Este 23 Este 0 -- -- 65
2018-04-26 13:00:00 16.8 11 Este 26 Nordeste 0 -- -- 68
2018-04-26 12:00:00 14.9 10 Este 19 Nordeste 0 -- -- 75
2018-04-26 11:00:00 12.6 10 Este 20 Este 0 -- -- 79
2018-04-26 10:00:00 10.7 11 Este 22 Este 0 -- -- 83
2018-04-26 09:00:00 9.6 10 Nordeste 18 Nordeste 0 -- -- 87
2018-04-26 08:00:00 7.8 4 Nordeste 12 Este 0 -- -- 91
2018-04-26 07:00:00 8.2 8 Este 23 Este 0 -- -- 89
2018-04-26 06:00:00 8.3 8 Nordeste 15 Nordeste 0 -- -- 89
2018-04-26 05:00:00 8.8 5 Nordeste 14 Nordeste 0 -- -- 87
2018-04-26 04:00:00 10.1 13 Este 23 Este 0 -- -- 85
2018-04-26 03:00:00 11 13 Este 25 Este 0 -- -- 84
2018-04-26 02:00:00 11.1 9 Este 21 Este 0 -- -- 84
2018-04-26 01:00:00 11.7 5 Nordeste 17 Norte 0 -- -- 83
2018-04-26 00:00:00 14.3 9 Nordeste 27 Nordeste 0 -- -- 78
2018-04-25 23:00:00 16.3 8 Noroeste 14 Norte 0 -- -- 77
2018-04-25 22:00:00 17.9 2 Sur 5 Sudoeste 0 -- -- 71
2018-04-25 21:00:00 21.9 2 Este 12 Nordeste 0 -- -- 54
2018-04-25 20:00:00 23.8 8 Nordeste 14 Nordeste 0 -- -- 44
2018-04-25 19:00:00 24.6 9 Nordeste 19 Nordeste 0 -- -- 44
2018-04-25 18:00:00 24.9 10 Nordeste 23 Nordeste 0 -- -- 44
2018-04-25 17:00:00 24.9 9 Norte 28 Norte 0 -- -- 42
2018-04-25 16:00:00 25 10 Nordeste 18 Nordeste 0 -- -- 46
2018-04-25 15:00:00 24.4 6 Nordeste 23 Nordeste 0 -- -- 46
2018-04-25 14:00:00 23.4 10 Norte 18 Norte 0 -- -- 46
2018-04-25 13:00:00 22.6 8 Norte 14 Noroeste 0 -- -- 49
2018-04-25 12:00:00 21.3 6 Norte 11 Noroeste 0 -- -- 52
2018-04-25 11:00:00 18.6 3 Norte 8 Noroeste 0 -- -- 66
2018-04-25 10:00:00 15.6 3 Norte 5 Noroeste 0 -- -- 78
2018-04-25 09:00:00 10.7 3 Sudoeste 5 Sudoeste 0 -- -- 94
2018-04-25 08:00:00 8.3 4 Sur 10 Sur 0 -- -- 93
2018-04-25 07:00:00 8.3 3 Sudoeste 9 Sur 0 -- -- 93
2018-04-25 06:00:00 8.2 6 Sur 9 Sur 0 -- -- 92
2018-04-25 05:00:00 8.9 3 Norte 6 Noroeste 0 -- -- 91
2018-04-25 04:00:00 9.5 0 Calma 6 Noroeste 0 -- -- 89
2018-04-25 03:00:00 10.5 2 Sur 4 Sudoeste 0 -- -- 89
2018-04-25 02:00:00 11.2 4 Sur 6 Sur 0 -- -- 88
2018-04-25 01:00:00 12 3 Sudoeste 7 Sudoeste 0 -- -- 84
2018-04-25 00:00:00 13 3 Sudoeste 5 Sur 0 -- -- 82
2018-04-24 23:00:00 14.6 5 Sur 10 Sur 0 -- -- 79
2018-04-24 22:00:00 17.6 2 Sudoeste 8 Nordeste 0 -- -- 68
2018-04-24 21:00:00 20.7 2 Nordeste 6 Nordeste 0 -- -- 59
2018-04-24 20:00:00 22.6 3 Nordeste 15 Nordeste 0 -- -- 52
2018-04-24 19:00:00 23.3 9 Nordeste 19 Norte 0 -- -- 46
2018-04-24 18:00:00 24 11 Nordeste 25 Nordeste 0 -- -- 47
2018-04-24 17:00:00 24 15 Este 24 Este 0 -- -- 41
2018-04-24 16:00:00 23.7 15 Este 29 Este 0 -- -- 40
2018-04-24 15:00:00 23.2 20 Este 33 Nordeste 0 -- -- 39
2018-04-24 14:00:00 22.5 21 Este 32 Este 0 -- -- 40
2018-04-24 13:00:00 21.4 16 Este 28 Este 0 -- -- 46
2018-04-24 12:00:00 19.4 9 Este 22 Este 0 -- -- 59
2018-04-24 11:00:00 17 11 Nordeste 18 Este 0 -- -- 65
2018-04-24 10:00:00 12.9 3 Norte 7 Noroeste 0 -- -- 87
2018-04-24 09:00:00 8.9 2 Noroeste 6 Sudeste 0 -- -- 97
2018-04-24 08:00:00 7 3 Sudeste 5 Sudeste 0 -- -- 95
2018-04-24 07:00:00 7.4 0 Calma 8 Sur 0 -- -- 94
2018-04-24 06:00:00 8.2 4 Sur 8 Sur 0 -- -- 94
2018-04-24 05:00:00 9 3 Sudeste 6 Noroeste 0 -- -- 93
2018-04-24 04:00:00 9.9 2 Nordeste 7 Sur 0 -- -- 91
2018-04-24 03:00:00 10.8 5 Sur 13 Sur 0 -- -- 93
2018-04-24 02:00:00 11.1 3 Sudoeste 12 Sur 0 -- -- 92
2018-04-24 01:00:00 12.4 2 Norte 8 Noroeste 0 -- -- 86
2018-04-24 00:00:00 12.7 2 Este 10 Sur 0 -- -- 86